Wetterdaten: Woche 01.06.15 - 07.06.15 (KW23)
Datum Zeit Temp. A. Feuchte A. Luftdruck Regen Wind Richtung Taupunkt Windchill Windben
01.06.2015 00:00 15,8 C 79 % 1014,8 hPa 0,0 l/m 0,2 km/h N 12,1 C 15,8 C 4,0 km/h
01.06.2015 01:00 15,1 C 80 % 1015,3 hPa 0,0 l/m 0,1 km/h N 11,6 C 15,1 C 1,6 km/h
01.06.2015 02:00 14,0 C 82 % 1015,6 hPa 0,0 l/m 0,1 km/h N 10,9 C 14,0 C 2,4 km/h
01.06.2015 03:00 13,0 C 83 % 1015,4 hPa 0,0 l/m 0,0 km/h N 10,1 C 13,0 C 0,0 km/h
01.06.2015 04:00 12,6 C 83 % 1015,4 hPa 0,0 l/m 0,3 km/h N 9,7 C 12,6 C 2,0 km/h
01.06.2015 05:00 13,7 C 82 % 1015,6 hPa 0,0 l/m 0,4 km/h N 10,7 C 13,7 C 4,4 km/h
01.06.2015 06:00 14,7 C 83 % 1015,9 hPa 0,0 l/m 0,4 km/h N 11,8 C 14,7 C 4,4 km/h
01.06.2015 07:00 16,6 C 78 % 1016,4 hPa 0,0 l/m 0,4 km/h N 12,7 C 16,6 C 4,8 km/h
01.06.2015 08:00 19,3 C 72 % 1016,6 hPa 0,0 l/m 0,0 km/h N 14,2 C 19,3 C 1,6 km/h
01.06.2015 09:00 22,3 C 67 % 1016,7 hPa 0,0 l/m 0,0 km/h N 15,7 C 22,3 C 4,8 km/h
01.06.2015 10:00 24,0 C 64 % 1016,6 hPa 0,0 l/m 0,0 km/h N 16,7 C 24,0 C 6,4 km/h
01.06.2015 11:00 25,2 C 58 % 1016,5 hPa 0,0 l/m 1,6 km/h N 16,3 C 25,2 C 9,6 km/h
01.06.2015 12:00 26,1 C 55 % 1016,3 hPa 0,0 l/m 1,6 km/h N 16,2 C 26,1 C 12,1 km/h
01.06.2015 13:00 26,9 C 51 % 1016,0 hPa 0,0 l/m 1,6 km/h N 15,7 C 26,9 C 9,6 km/h
01.06.2015 14:00 26,5 C 53 % 1015,7 hPa 0,0 l/m 1,6 km/h N 16,1 C 26,5 C 12,9 km/h
01.06.2015 15:00 26,4 C 54 % 1015,7 hPa 0,0 l/m 1,6 km/h N 16,1 C 26,4 C 12,9 km/h
01.06.2015 16:00 26,0 C 51 % 1015,3 hPa 0,0 l/m 0,8 km/h N 14,9 C 26,0 C 8,1 km/h
01.06.2015 17:00 26,1 C 47 % 1015,1 hPa 0,0 l/m 1,6 km/h N 13,8 C 26,1 C 9,7 km/h
01.06.2015 18:00 26,5 C 49 % 1015,0 hPa 0,0 l/m 1,6 km/h N 14,9 C 26,5 C 9,7 km/h
01.06.2015 19:00 25,4 C 53 % 1014,9 hPa 0,0 l/m 1,6 km/h N 14,9 C 25,4 C 9,7 km/h
01.06.2015 20:00 24,4 C 58 % 1014,7 hPa 0,0 l/m 0,0 km/h N 15,6 C 24,4 C 4,8 km/h
01.06.2015 21:00 21,3 C 68 % 1014,8 hPa 0,0 l/m 0,0 km/h N 15,1 C 21,3 C 0,8 km/h
01.06.2015 22:00 18,7 C 75 % 1015,0 hPa 0,0 l/m 0,0 km/h N 14,1 C 18,7 C 0,0 km/h
01.06.2015 23:00 17,0 C 79 % 1015,2 hPa 0,0 l/m 0,0 km/h N 13,3 C 17,0 C 0,0 km/h
02.06.2015 00:00 15,9 C 82 % 1015,3 hPa 0,0 l/m 0,0 km/h N 12,8 C 15,9 C 0,0 km/h
02.06.2015 01:00 15,1 C 82 % 1015,2 hPa 0,0 l/m 0,0 km/h N 12,0 C 15,1 C 0,0 km/h
02.06.2015 02:00 14,8 C 81 % 1015,6 hPa 0,0 l/m 0,0 km/h N 11,5 C 14,8 C 0,8 km/h
02.06.2015 03:00 14,5 C 80 % 1015,9 hPa 0,0 l/m 0,0 km/h N 11,1 C 14,5 C 4,8 km/h
02.06.2015 04:00 16,2 C 79 % 1016,0 hPa 0,0 l/m 3,2 km/h N 12,5 C 16,2 C 14,5 km/h
02.06.2015 05:00 17,3 C 74 % 1015,8 hPa 0,0 l/m 0,0 km/h N 12,6 C 17,3 C 4,8 km/h
02.06.2015 06:00 17,4 C 76 % 1016,3 hPa 0,0 l/m 0,0 km/h N 13,0 C 17,4 C 4,0 km/h
02.06.2015 07:00 18,5 C 76 % 1016,9 hPa 0,0 l/m 0,0 km/h N 14,0 C 18,5 C 3,2 km/h
02.06.2015 08:00 21,3 C 65 % 1017,3 hPa 0,0 l/m 2,4 km/h N 14,3 C 21,3 C 16,9 km/h
02.06.2015 09:00 23,4 C 60 % 1017,7 hPa 0,0 l/m 3,2 km/h N 15,2 C 23,4 C 16,1 km/h
02.06.2015 10:00 23,8 C 54 % 1018,0 hPa 0,0 l/m 4,0 km/h N 14,0 C 23,8 C 14,5 km/h
02.06.2015 11:00 24,5 C 54 % 1018,3 hPa 0,0 l/m 4,8 km/h N 14,5 C 24,5 C 17,7 km/h
02.06.2015 12:00 25,0 C 56 % 1018,3 hPa 0,0 l/m 6,4 km/h N 15,5 C 25,1 C 18,5 km/h
02.06.2015 13:00 25,8 C 52 % 1017,9 hPa 0,0 l/m 4,0 km/h N 15,0 C 25,8 C 16,9 km/h
02.06.2015 14:00 27,8 C 43 % 1017,5 hPa 0,0 l/m 1,6 km/h N 14,0 C 27,8 C 9,6 km/h
02.06.2015 15:00 27,9 C 45 % 1017,2 hPa 0,0 l/m 1,9 km/h N 14,7 C 27,9 C 12,4 km/h
02.06.2015 16:00 27,1 C 50 % 1017,1 hPa 0,0 l/m 3,7 km/h N 15,7 C 27,1 C 11,3 km/h
02.06.2015 17:00 26,8 C 49 % 1017,2 hPa 0,0 l/m 3,9 km/h N 15,3 C 26,8 C 13,7 km/h
02.06.2015 18:00 27,0 C 48 % 1017,1 hPa 0,0 l/m 2,5 km/h N 15,1 C 27,0 C 12,5 km/h
02.06.2015 19:00 26,1 C 51 % 1017,0 hPa 0,0 l/m 2,0 km/h N 15,0 C 26,1 C 8,9 km/h
02.06.2015 20:00 24,7 C 54 % 1017,1 hPa 0,0 l/m 0,4 km/h N 14,6 C 24,7 C 4,4 km/h
02.06.2015 21:00 22,1 C 62 % 1017,6 hPa 0,0 l/m 0,0 km/h N 14,3 C 22,1 C 0,0 km/h
02.06.2015 22:00 19,6 C 70 % 1018,0 hPa 0,0 l/m 0,0 km/h N 14,0 C 19,6 C 0,0 km/h
02.06.2015 23:00 18,2 C 76 % 1018,1 hPa 0,0 l/m 0,1 km/h N 14,0 C 18,2 C 2,4 km/h
03.06.2015 00:00 17,1 C 80 % 1018,3 hPa 0,0 l/m 0,0 km/h N 13,5 C 17,1 C 0,0 km/h
03.06.2015 01:00 16,2 C 82 % 1018,3 hPa 0,0 l/m 0,0 km/h N 13,1 C 16,2 C 0,4 km/h
03.06.2015 02:00 16,0 C 82 % 1018,3 hPa 0,0 l/m 0,3 km/h N 13,0 C 16,0 C 3,2 km/h
03.06.2015 03:00 15,8 C 82 % 1018,3 hPa 0,0 l/m 0,1 km/h N 12,8 C 15,8 C 0,8 km/h
03.06.2015 04:00 16,1 C 82 % 1018,3 hPa 0,0 l/m 0,4 km/h N 13,0 C 16,1 C 3,2 km/h
03.06.2015 05:00 16,7 C 82 % 1018,6 hPa 0,0 l/m 0,0 km/h N 13,6 C 16,7 C 0,0 km/h
03.06.2015 06:00 17,3 C 82 % 1019,0 hPa 0,0 l/m 0,1 km/h N 14,1 C 17,3 C 1,6 km/h
03.06.2015 07:00 18,6 C 79 % 1019,5 hPa 0,0 l/m 0,0 km/h N 14,8 C 18,6 C 0,8 km/h
03.06.2015 08:00 23,0 C 69 % 1019,7 hPa 0,0 l/m 0,1 km/h N 16,9 C 23,0 C 2,8 km/h
03.06.2015 09:00 26,4 C 62 % 1019,6 hPa 0,0 l/m 0,5 km/h N 18,5 C 26,4 C 6,4 km/h
03.06.2015 10:00 27,8 C 60 % 1019,7 hPa 0,0 l/m 0,6 km/h N 19,3 C 27,8 C 6,0 km/h
03.06.2015 11:00 29,0 C 54 % 1019,7 hPa 0,0 l/m 1,0 km/h N 18,6 C 29,0 C 6,8 km/h
03.06.2015 12:00 29,7 C 49 % 1019,3 hPa 0,0 l/m 0,9 km/h N 17,7 C 29,7 C 8,0 km/h
03.06.2015 13:00 29,4 C 43 % 1019,1 hPa 0,0 l/m 4,2 km/h N 15,5 C 29,4 C 16,9 km/h
03.06.2015 14:00 30,6 C 40 % 1018,8 hPa 0,0 l/m 2,4 km/h N 15,5 C 30,6 C 13,7 km/h
03.06.2015 15:00 30,0 C 41 % 1018,6 hPa 0,0 l/m 3,5 km/h N 15,1 C 30,0 C 13,3 km/h
03.06.2015 16:00 29,9 C 40 % 1018,1 hPa 0,0 l/m 3,1 km/h N 14,7 C 29,9 C 14,5 km/h
03.06.2015 17:00 30,4 C 37 % 1017,7 hPa 0,0 l/m 5,3 km/h N 13,9 C 30,3 C 16,9 km/h
03.06.2015 18:00 30,5 C 39 % 1017,3 hPa 0,0 l/m 4,6 km/h N 14,7 C 30,5 C 16,1 km/h
03.06.2015 19:00 29,8 C 41 % 1017,5 hPa 0,0 l/m 2,2 km/h N 15,2 C 29,8 C 11,7 km/h
03.06.2015 20:00 28,0 C 45 % 1017,7 hPa 0,0 l/m 1,5 km/h N 14,8 C 28,0 C 9,7 km/h
03.06.2015 21:00 25,8 C 49 % 1018,5 hPa 0,0 l/m 0,7 km/h N 14,1 C 25,8 C 6,4 km/h
03.06.2015 22:00 25,3 C 50 % 1018,8 hPa 0,0 l/m 1,6 km/h N 14,0 C 25,3 C 9,3 km/h
03.06.2015 23:00 24,4 C 54 % 1019,1 hPa 0,0 l/m 0,5 km/h N 14,3 C 24,4 C 6,0 km/h
04.06.2015 00:00 24,0 C 55 % 1019,5 hPa 0,0 l/m 0,7 km/h N 14,4 C 24,0 C 6,8 km/h
04.06.2015 01:00 24,4 C 53 % 1019,9 hPa 0,0 l/m 3,0 km/h N 14,2 C 24,4 C 11,3 km/h
04.06.2015 02:00 23,9 C 54 % 1020,3 hPa 0,0 l/m 1,9 km/h N 13,9 C 23,9 C 8,0 km/h
04.06.2015 03:00 22,8 C 56 % 1020,8 hPa 0,0 l/m 1,7 km/h N 13,5 C 22,8 C 9,3 km/h
04.06.2015 04:00 22,0 C 58 % 1021,3 hPa 0,0 l/m 3,2 km/h N 13,5 C 22,0 C 14,5 km/h
04.06.2015 05:00 20,7 C 65 % 1022,2 hPa 0,0 l/m 4,8 km/h N 13,8 C 20,7 C 15,7 km/h
04.06.2015 06:00 20,0 C 69 % 1023,0 hPa 0,0 l/m 6,8 km/h N 14,1 C 19,9 C 18,1 km/h
04.06.2015 07:00 20,4 C 69 % 1023,5 hPa 0,0 l/m 6,6 km/h N 14,5 C 20,3 C 18,1 km/h
04.06.2015 08:00 21,0 C 67 % 1023,8 hPa 0,0 l/m 8,7 km/h N 14,7 C 20,1 C 21,7 km/h
04.06.2015 09:00 21,8 C 66 % 1024,1 hPa 0,0 l/m 8,9 km/h N 15,0 C 21,0 C 18,9 km/h
04.06.2015 10:00 22,8 C 64 % 1024,2 hPa 0,0 l/m 7,6 km/h N 15,5 C 22,4 C 18,9 km/h
04.06.2015 11:00 23,6 C 62 % 1024,1 hPa 0,0 l/m 7,6 km/h N 15,8 C 23,3 C 19,7 km/h
04.06.2015 12:00 24,8 C 59 % 1023,9 hPa 0,0 l/m 7,1 km/h N 16,2 C 24,7 C 18,5 km/h
04.06.2015 13:00 25,6 C 56 % 1023,5 hPa 0,0 l/m 6,3 km/h N 16,2 C 25,5 C 16,5 km/h
04.06.2015 14:00 26,3 C 54 % 1022,9 hPa 0,0 l/m 5,9 km/h N 16,2 C 26,3 C 18,9 km/h
04.06.2015 15:00 26,4 C 53 % 1022,4 hPa 0,0 l/m 7,3 km/h N 16,0 C 26,2 C 20,9 km/h
04.06.2015 16:00 26,5 C 51 % 1022,0 hPa 0,0 l/m 6,9 km/h N 15,5 C 26,4 C 18,5 km/h
04.06.2015 17:00 26,9 C 50 % 1021,6 hPa 0,0 l/m 6,0 km/h N 15,5 C 26,9 C 16,5 km/h
04.06.2015 18:00 26,8 C 49 % 1021,3 hPa 0,0 l/m 5,1 km/h N 15,0 C 26,7 C 15,7 km/h
04.06.2015 19:00 26,4 C 49 % 1021,5 hPa 0,0 l/m 2,0 km/h N 14,8 C 26,4 C 9,7 km/h
04.06.2015 20:00 24,7 C 53 % 1021,9 hPa 0,0 l/m 0,4 km/h N 14,4 C 24,7 C 5,6 km/h
04.06.2015 21:00 22,4 C 58 % 1022,8 hPa 0,0 l/m 0,8 km/h N 13,7 C 22,4 C 8,8 km/h
04.06.2015 22:00 20,9 C 59 % 1023,5 hPa 0,0 l/m 0,3 km/h N 12,6 C 20,9 C 5,2 km/h
04.06.2015 23:00 19,7 C 63 % 1023,8 hPa 0,0 l/m 0,1 km/h N 12,3 C 19,7 C 2,8 km/h
05.06.2015 00:00 18,5 C 65 % 1024,1 hPa 0,0 l/m 0,4 km/h N 11,7 C 18,5 C 5,6 km/h
05.06.2015 01:00 17,9 C 65 % 1024,3 hPa 0,0 l/m 0,3 km/h N 11,1 C 17,9 C 5,2 km/h
05.06.2015 02:00 16,5 C 69 % 1024,3 hPa 0,0 l/m 0,1 km/h N 10,7 C 16,5 C 2,4 km/h
05.06.2015 03:00 14,8 C 74 % 1024,2 hPa 0,0 l/m 0,0 km/h N 10,1 C 14,8 C 0,0 km/h
05.06.2015 04:00 13,6 C 77 % 1024,1 hPa 0,0 l/m 0,0 km/h N 9,5 C 13,6 C 0,0 km/h
05.06.2015 05:00 12,7 C 79 % 1024,1 hPa 0,0 l/m 0,1 km/h N 9,2 C 12,7 C 1,2 km/h
05.06.2015 06:00 13,4 C 80 % 1024,3 hPa 0,0 l/m 0,1 km/h N 10,0 C 13,4 C 2,8 km/h
05.06.2015 07:00 16,4 C 69 % 1024,2 hPa 0,0 l/m 1,6 km/h N 10,5 C 16,4 C 7,6 km/h
05.06.2015 08:00 19,6 C 58 % 1023,9 hPa 0,0 l/m 1,6 km/h N 10,9 C 19,6 C 8,4 km/h
05.06.2015 09:00 21,3 C 51 % 1023,9 hPa 0,0 l/m 2,5 km/h N 10,8 C 21,3 C 8,9 km/h
05.06.2015 10:00 22,2 C 51 % 1023,9 hPa 0,0 l/m 2,9 km/h N 11,6 C 22,2 C 9,3 km/h
05.06.2015 11:00 23,0 C 48 % 1023,7 hPa 0,0 l/m 3,2 km/h N 11,5 C 23,0 C 9,7 km/h
05.06.2015 12:00 24,2 C 48 % 1023,3 hPa 0,0 l/m 2,4 km/h N 12,5 C 24,2 C 9,3 km/h
05.06.2015 13:00 25,5 C 43 % 1023,0 hPa 0,0 l/m 2,0 km/h N 12,0 C 25,5 C 9,7 km/h
05.06.2015 14:00 26,0 C 41 % 1022,6 hPa 0,0 l/m 2,1 km/h N 11,8 C 26,0 C 10,1 km/h
05.06.2015 15:00 26,2 C 40 % 1022,3 hPa 0,0 l/m 1,3 km/h N 11,5 C 26,2 C 9,3 km/h
05.06.2015 16:00 25,5 C 42 % 1022,0 hPa 0,0 l/m 1,6 km/h N 11,7 C 25,5 C 8,9 km/h
05.06.2015 17:00 26,2 C 43 % 1021,4 hPa 0,0 l/m 0,9 km/h N 12,5 C 26,2 C 6,8 km/h
05.06.2015 18:00 26,8 C 50 % 1020,9 hPa 0,0 l/m 1,0 km/h N 15,3 C 26,8 C 8,4 km/h
05.06.2015 19:00 25,6 C 51 % 1020,7 hPa 0,0 l/m 0,5 km/h N 14,6 C 25,6 C 7,2 km/h
05.06.2015 20:00 24,2 C 54 % 1020,6 hPa 0,0 l/m 0,2 km/h N 14,3 C 24,2 C 3,6 km/h
05.06.2015 21:00 21,6 C 63 % 1021,1 hPa 0,0 l/m 0,1 km/h N 14,2 C 21,6 C 3,2 km/h
05.06.2015 22:00 19,9 C 70 % 1021,2 hPa 0,0 l/m 0,0 km/h N 14,3 C 19,9 C 1,2 km/h
05.06.2015 23:00 18,0 C 77 % 1021,2 hPa 0,0 l/m 0,0 km/h N 13,8 C 18,0 C 0,0 km/h
06.06.2015 00:00 16,8 C 80 % 1021,1 hPa 0,0 l/m 0,0 km/h N 13,3 C 16,8 C 0,0 km/h
06.06.2015 01:00 15,8 C 82 % 1021,0 hPa 0,0 l/m 0,0 km/h N 12,6 C 15,8 C 0,0 km/h
06.06.2015 02:00 14,9 C 82 % 1020,5 hPa 0,0 l/m 0,0 km/h N 11,9 C 14,9 C 0,0 km/h
06.06.2015 03:00 14,3 C 82 % 1020,3 hPa 0,0 l/m 0,0 km/h N 11,2 C 14,3 C 0,0 km/h
06.06.2015 04:00 13,5 C 81 % 1020,2 hPa 0,0 l/m 0,0 km/h N 10,3 C 13,5 C 0,0 km/h
06.06.2015 05:00 12,8 C 81 % 1020,3 hPa 0,0 l/m 0,0 km/h N 9,6 C 12,8 C 0,0 km/h
06.06.2015 06:00 13,3 C 79 % 1020,6 hPa 0,0 l/m 0,0 km/h N 9,8 C 13,3 C 0,0 km/h
06.06.2015 07:00 16,0 C 76 % 1020,7 hPa 0,0 l/m 0,1 km/h N 11,7 C 16,0 C 1,6 km/h
06.06.2015 08:00 19,0 C 78 % 1020,7 hPa 0,0 l/m 0,5 km/h N 15,2 C 19,0 C 5,6 km/h
06.06.2015 09:00 23,6 C 69 % 1020,8 hPa 0,0 l/m 0,6 km/h N 17,4 C 23,6 C 6,8 km/h
06.06.2015 10:00 26,8 C 57 % 1020,7 hPa 0,0 l/m 2,5 km/h N 17,4 C 26,8 C 9,3 km/h
06.06.2015 11:00 28,2 C 53 % 1020,9 hPa 0,0 l/m 2,4 km/h N 17,7 C 28,2 C 12,1 km/h
06.06.2015 12:00 29,0 C 50 % 1020,8 hPa 0,0 l/m 2,7 km/h N 17,6 C 29,0 C 12,5 km/h
06.06.2015 13:00 29,7 C 51 % 1020,7 hPa 0,0 l/m 1,9 km/h N 18,4 C 29,7 C 11,3 km/h
06.06.2015 14:00 29,8 C 51 % 1020,7 hPa 0,0 l/m 2,0 km/h N 18,5 C 29,8 C 10,9 km/h
06.06.2015 15:00 29,5 C 52 % 1020,7 hPa 0,0 l/m 2,0 km/h N 18,4 C 29,5 C 10,9 km/h
06.06.2015 16:00 28,7 C 53 % 1020,7 hPa 0,0 l/m 1,2 km/h N 18,2 C 28,7 C 8,4 km/h
06.06.2015 17:00 29,1 C 52 % 1020,5 hPa 0,0 l/m 0,8 km/h N 18,0 C 29,1 C 6,8 km/h
06.06.2015 18:00 29,0 C 50 % 1020,3 hPa 0,0 l/m 1,4 km/h N 17,5 C 29,0 C 8,4 km/h
06.06.2015 19:00 28,0 C 52 % 1020,2 hPa 0,0 l/m 2,2 km/h N 17,1 C 28,0 C 8,9 km/h
06.06.2015 20:00 26,6 C 57 % 1020,1 hPa 0,0 l/m 0,6 km/h N 17,2 C 26,6 C 6,8 km/h
06.06.2015 21:00 24,7 C 64 % 1020,7 hPa 0,0 l/m 0,0 km/h N 17,3 C 24,7 C 0,8 km/h
06.06.2015 22:00 21,9 C 73 % 1021,3 hPa 0,0 l/m 0,0 km/h N 16,7 C 21,9 C 0,0 km/h
06.06.2015 23:00 20,0 C 78 % 1021,8 hPa 0,0 l/m 0,0 km/h N 16,0 C 20,0 C 0,0 km/h
07.06.2015 00:00 18,8 C 81 % 1021,9 hPa 0,0 l/m 0,0 km/h N 15,3 C 18,8 C 0,0 km/h
07.06.2015 01:00 17,8 C 81 % 1022,0 hPa 0,0 l/m 0,0 km/h N 14,5 C 17,8 C 0,0 km/h
07.06.2015 02:00 17,0 C 81 % 1021,9 hPa 0,0 l/m 0,0 km/h N 13,7 C 17,0 C 0,0 km/h
07.06.2015 03:00 16,4 C 81 % 1022,1 hPa 0,0 l/m 0,0 km/h N 13,1 C 16,4 C 0,0 km/h
07.06.2015 04:00 16,0 C 80 % 1022,3 hPa 0,0 l/m 0,0 km/h N 12,6 C 16,0 C 1,2 km/h
07.06.2015 05:00 15,9 C 80 % 1022,5 hPa 0,0 l/m 0,0 km/h N 12,4 C 15,9 C 0,0 km/h
07.06.2015 06:00 16,3 C 78 % 1022,9 hPa 0,0 l/m 0,0 km/h N 12,5 C 16,3 C 0,0 km/h
07.06.2015 07:00 18,0 C 79 % 1023,1 hPa 0,0 l/m 0,3 km/h N 14,3 C 18,0 C 4,0 km/h
07.06.2015 08:00 21,9 C 74 % 1023,0 hPa 0,0 l/m 0,8 km/h N 17,1 C 21,9 C 6,0 km/h
07.06.2015 09:00 25,4 C 63 % 1022,9 hPa 0,0 l/m 0,5 km/h N 17,9 C 25,4 C 4,8 km/h
07.06.2015 10:00 27,6 C 61 % 1022,9 hPa 0,0 l/m 0,4 km/h N 19,2 C 27,6 C 5,2 km/h
07.06.2015 11:00 28,9 C 57 % 1022,6 hPa 0,0 l/m 1,1 km/h N 19,5 C 28,9 C 7,2 km/h
07.06.2015 12:00 29,7 C 55 % 1022,3 hPa 0,0 l/m 1,2 km/h N 19,7 C 29,7 C 9,7 km/h
07.06.2015 13:00 30,1 C 53 % 1022,1 hPa 0,0 l/m 1,5 km/h N 19,3 C 30,1 C 8,9 km/h
07.06.2015 14:00 29,8 C 52 % 1021,7 hPa 0,0 l/m 1,1 km/h N 18,7 C 29,8 C 8,9 km/h
07.06.2015 15:00 29,6 C 50 % 1021,4 hPa 0,0 l/m 1,3 km/h N 18,1 C 29,6 C 8,0 km/h
07.06.2015 16:00 28,8 C 51 % 1020,9 hPa 0,0 l/m 1,5 km/h N 17,6 C 28,8 C 8,9 km/h
07.06.2015 17:00 28,9 C 48 % 1020,6 hPa 0,0 l/m 2,7 km/h N 16,9 C 28,9 C 13,7 km/h
07.06.2015 18:00 29,3 C 46 % 1020,6 hPa 0,0 l/m 1,3 km/h N 16,3 C 29,3 C 8,9 km/h
07.06.2015 19:00 28,9 C 47 % 1020,3 hPa 0,0 l/m 0,4 km/h N 16,5 C 28,9 C 4,4 km/h
07.06.2015 20:00 27,5 C 52 % 1020,1 hPa 0,0 l/m 0,0 km/h N 16,7 C 27,5 C 0,0 km/h
07.06.2015 21:00 24,0 C 62 % 1020,3 hPa 0,0 l/m 0,0 km/h N 16,1 C 24,0 C 0,0 km/h
07.06.2015 22:00 21,4 C 71 % 1020,1 hPa 0,0 l/m 0,0 km/h N 15,9 C 21,4 C 0,0 km/h
07.06.2015 23:00 19,7 C 78 % 1020,3 hPa 0,0 l/m 0,0 km/h N 15,6 C 19,7 C 0,0 km/h
Min-Datum _ 01.06.15 03.06.15 01.06.15 - 01.06.15 - 05.06.15 01.06.15 01.06.15
_ Min-Zeit 04:15 17:15 20:30 - 00:15 - 05:15 04:15 01:00
Minimum _ 12,4 C 35 % 1014,6 hPa - 0,0 km/h - 9,2 C 12,4 C 0,0 km/h
Max-Datum _ 03.06.15 01.06.15 05.06.15 01.06.15 04.06.15 - 07.06.15 03.06.15 04.06.15
_ Max-Zeit 14:45 03:15 01:45 00:00 08:30 - 12:00 14:30 08:15
Maximum _ 31,0 C 83 % 1024,4 hPa 0,0 l/m 10,3 km/h
N
- 20,3 C 30,8 C 27,4 km/h
N
Durchschnitt _ 22,5 C 62 % 1019,8 hPa #0,0 l/m 1,6 km/h N 14,4 C 22,4 C 7,2 km/h